createdAt,value
2024-05-09T00:02:01.251Z,5.63
2024-05-09T00:04:03.759Z,5.60
2024-05-09T00:06:08.100Z,5.53
2024-05-09T00:08:11.073Z,5.56
2024-05-09T00:10:22.365Z,5.65
2024-05-09T00:12:31.348Z,5.62
2024-05-09T00:14:33.763Z,5.61
2024-05-09T00:16:36.120Z,5.57
2024-05-09T00:18:38.459Z,5.47
2024-05-09T00:20:41.449Z,5.44
2024-05-09T00:22:43.967Z,5.36
2024-05-09T00:24:46.241Z,5.38
2024-05-09T00:26:48.468Z,5.35
2024-05-09T00:28:50.833Z,5.27
2024-05-09T00:30:53.346Z,5.30
2024-05-09T00:32:55.749Z,5.26
2024-05-09T00:34:58.213Z,5.20
2024-05-09T00:37:00.513Z,5.17
2024-05-09T00:39:02.778Z,5.17
2024-05-09T00:41:05.167Z,5.15
2024-05-09T00:43:07.551Z,5.13
2024-05-09T00:45:09.821Z,5.11
2024-05-09T00:47:12.245Z,5.13
2024-05-09T00:49:14.638Z,5.10
2024-05-09T00:51:17.124Z,5.12
2024-05-09T00:53:19.525Z,5.08
2024-05-09T00:55:21.837Z,5.02
2024-05-09T00:57:24.584Z,5.07
2024-05-09T00:59:26.951Z,4.98
2024-05-09T01:01:29.388Z,4.91
2024-05-09T01:03:31.845Z,4.90
2024-05-09T01:05:35.316Z,4.90
2024-05-09T01:07:37.802Z,4.89
2024-05-09T01:09:40.054Z,4.86
2024-05-09T01:11:42.453Z,4.92
2024-05-09T01:13:47.951Z,4.92
2024-05-09T01:15:53.067Z,4.90
2024-05-09T01:17:56.502Z,4.86
2024-05-09T01:19:59.071Z,4.86
2024-05-09T01:22:01.331Z,4.86
2024-05-09T01:24:03.639Z,4.80
2024-05-09T01:26:05.912Z,4.82
2024-05-09T01:28:08.295Z,4.77
2024-05-09T01:30:17.021Z,4.76
2024-05-09T01:32:23.277Z,4.79
2024-05-09T01:34:26.798Z,4.74
2024-05-09T01:36:29.140Z,4.72
2024-05-09T01:38:31.545Z,4.67
2024-05-09T01:40:38.508Z,4.62
2024-05-09T01:42:42.376Z,4.64
2024-05-09T01:44:44.610Z,4.63
2024-05-09T01:46:46.887Z,4.61
2024-05-09T01:48:49.380Z,4.59
2024-05-09T01:50:51.758Z,4.54
2024-05-09T01:52:54.101Z,4.53
2024-05-09T01:54:56.400Z,4.49
2024-05-09T01:56:58.634Z,4.50
2024-05-09T01:59:02.034Z,4.49
2024-05-09T02:01:04.584Z,4.47
2024-05-09T02:03:10.342Z,4.46
2024-05-09T02:05:14.102Z,4.43
2024-05-09T02:07:16.724Z,4.30
2024-05-09T02:09:18.952Z,4.28
2024-05-09T02:11:21.228Z,4.27
2024-05-09T02:13:23.539Z,4.29
2024-05-09T02:15:25.770Z,4.33
2024-05-09T02:17:28.067Z,4.33
2024-05-09T02:19:30.469Z,4.27
2024-05-09T02:21:36.822Z,4.26
2024-05-09T02:23:39.057Z,4.25
2024-05-09T02:25:44.435Z,4.25
2024-05-09T02:27:46.736Z,4.22
2024-05-09T02:29:48.991Z,4.20
2024-05-09T02:31:51.312Z,4.13
2024-05-09T02:33:53.947Z,4.10
2024-05-09T02:35:56.357Z,4.07
2024-05-09T02:37:58.674Z,4.08
2024-05-09T02:40:00.955Z,4.07
2024-05-09T02:42:03.319Z,4.08
2024-05-09T02:44:05.727Z,4.07
2024-05-09T02:46:07.981Z,4.07
2024-05-09T02:48:14.120Z,4.08
2024-05-09T02:50:25.962Z,4.02
2024-05-09T02:52:32.477Z,4.04
2024-05-09T02:54:34.687Z,4.04
2024-05-09T02:56:37.061Z,4.03
2024-05-09T02:58:39.402Z,4.01
2024-05-09T03:00:43.009Z,3.97
2024-05-09T03:02:45.647Z,3.96
2024-05-09T03:04:48.266Z,3.90
2024-05-09T03:06:50.644Z,3.96
2024-05-09T03:08:52.883Z,4.01
2024-05-09T03:10:55.169Z,3.94
2024-05-09T03:12:57.464Z,3.95
2024-05-09T03:14:59.706Z,3.94
2024-05-09T03:17:02.053Z,3.92
2024-05-09T03:19:04.459Z,4.04
2024-05-09T03:21:07.419Z,4.04
2024-05-09T03:23:10.424Z,3.99
2024-05-09T03:25:12.831Z,3.97
2024-05-09T03:27:15.104Z,4.06
2024-05-09T03:29:17.433Z,4.04
2024-05-09T03:31:19.706Z,4.10
2024-05-09T03:33:22.281Z,4.08
2024-05-09T03:35:24.954Z,4.06
2024-05-09T03:37:27.308Z,4.03
2024-05-09T03:39:29.516Z,4.02
2024-05-09T03:41:31.880Z,3.99
2024-05-09T03:43:34.240Z,4.04
2024-05-09T03:45:36.541Z,4.04
2024-05-09T03:47:38.933Z,4.10
2024-05-09T03:49:41.297Z,4.12
2024-05-09T03:51:43.883Z,4.13
2024-05-09T03:53:46.163Z,4.15
2024-05-09T03:55:48.520Z,4.11
2024-05-09T03:57:50.898Z,4.17
2024-05-09T03:59:53.111Z,4.17
2024-05-09T04:01:55.804Z,4.20
2024-05-09T04:03:58.207Z,4.24
2024-05-09T04:06:00.468Z,4.23
2024-05-09T04:08:02.862Z,4.28
2024-05-09T04:10:08.882Z,4.28
2024-05-09T04:12:11.493Z,4.33
2024-05-09T04:14:13.874Z,4.35
2024-05-09T04:16:16.260Z,4.37
2024-05-09T04:18:18.732Z,4.42
2024-05-09T04:20:32.345Z,4.43
2024-05-09T04:22:40.220Z,4.39
2024-05-09T04:24:42.468Z,4.51
2024-05-09T04:26:44.730Z,4.54
2024-05-09T04:28:47.021Z,4.63
2024-05-09T04:30:49.473Z,4.67
2024-05-09T04:32:51.940Z,4.71
2024-05-09T04:34:54.320Z,4.75
2024-05-09T04:36:56.608Z,4.81
2024-05-09T04:38:58.839Z,4.85
2024-05-09T04:41:04.180Z,4.85
2024-05-09T04:43:07.427Z,4.86
2024-05-09T04:45:09.904Z,4.86
2024-05-09T04:47:12.356Z,4.96
2024-05-09T04:49:15.002Z,5.04
2024-05-09T04:51:17.412Z,5.07
2024-05-09T04:53:19.760Z,5.14
2024-05-09T04:55:21.988Z,5.21
2024-05-09T04:57:24.212Z,5.27
2024-05-09T04:59:26.600Z,5.32
2024-05-09T05:01:29.002Z,5.42
2024-05-09T05:03:31.543Z,5.45
2024-05-09T05:05:33.856Z,5.48
2024-05-09T05:07:36.226Z,5.56
2024-05-09T05:09:38.450Z,5.63
2024-05-09T05:11:40.928Z,5.69
2024-05-09T05:13:43.245Z,5.77
2024-05-09T05:15:52.260Z,5.84
2024-05-09T05:17:54.687Z,5.89
2024-05-09T05:19:57.845Z,5.95
2024-05-09T05:22:00.174Z,6.05
2024-05-09T05:24:02.414Z,6.12
2024-05-09T05:26:05.837Z,6.19
2024-05-09T05:28:08.172Z,6.27
2024-05-09T05:30:17.565Z,6.33
2024-05-09T05:32:23.572Z,6.40
2024-05-09T05:34:25.949Z,6.48
2024-05-09T05:36:28.202Z,6.66
2024-05-09T05:38:30.542Z,6.71
2024-05-09T05:40:36.790Z,6.75
2024-05-09T05:42:40.528Z,6.81
2024-05-09T05:44:42.776Z,6.88
2024-05-09T05:46:45.014Z,6.97
2024-05-09T05:48:47.488Z,7.03
2024-05-09T05:50:49.920Z,7.10
2024-05-09T05:52:52.291Z,7.20
2024-05-09T05:54:54.726Z,7.29
2024-05-09T05:56:58.846Z,7.34
2024-05-09T05:59:01.187Z,7.43
2024-05-09T06:01:03.644Z,7.48
2024-05-09T06:03:06.322Z,7.54
2024-05-09T06:05:10.118Z,7.60
2024-05-09T06:07:12.465Z,7.68
2024-05-09T06:09:14.787Z,7.75
2024-05-09T06:11:17.151Z,7.85
2024-05-09T06:13:20.675Z,7.93
2024-05-09T06:15:22.942Z,8.01
2024-05-09T06:17:25.363Z,8.08
2024-05-09T06:19:27.781Z,8.16
2024-05-09T06:21:30.219Z,8.24
2024-05-09T06:23:32.658Z,8.33
2024-05-09T06:25:38.173Z,8.40
2024-05-09T06:27:40.681Z,8.53
2024-05-09T06:29:42.912Z,8.60
2024-05-09T06:31:45.388Z,8.65
2024-05-09T06:33:47.895Z,8.69
2024-05-09T06:35:50.458Z,8.70
2024-05-09T06:37:52.784Z,8.78
2024-05-09T06:39:55.124Z,8.90
2024-05-09T06:41:57.422Z,9.00
2024-05-09T06:43:59.720Z,9.08
2024-05-09T06:46:02.062Z,9.17
2024-05-09T06:48:04.968Z,9.26
2024-05-09T06:50:13.345Z,9.32
2024-05-09T06:52:22.726Z,9.38
2024-05-09T06:54:24.948Z,9.47
2024-05-09T06:56:27.342Z,9.54
2024-05-09T06:58:29.610Z,9.69
2024-05-09T07:00:38.570Z,9.82
2024-05-09T07:02:43.193Z,9.95
2024-05-09T07:04:45.513Z,10.08
2024-05-09T07:06:47.812Z,10.19
2024-05-09T07:08:52.369Z,10.34
2024-05-09T07:10:55.026Z,10.42
2024-05-09T07:12:57.323Z,10.51
2024-05-09T07:14:59.585Z,10.63
2024-05-09T07:17:02.042Z,10.85
2024-05-09T07:19:04.762Z,11.05
2024-05-09T07:21:07.248Z,11.26
2024-05-09T07:23:10.971Z,11.30
2024-05-09T07:25:13.436Z,11.37
2024-05-09T07:27:15.676Z,11.36
2024-05-09T07:29:17.971Z,11.55
2024-05-09T07:31:20.277Z,11.76
2024-05-09T07:33:24.033Z,11.95
2024-05-09T07:35:27.285Z,11.98
2024-05-09T07:37:29.886Z,12.15
2024-05-09T07:39:32.132Z,12.26
2024-05-09T07:41:34.550Z,12.32
2024-05-09T07:43:36.842Z,12.45
2024-05-09T07:45:48.717Z,12.51
2024-05-09T07:49:44.163Z,12.59
2024-05-09T07:53:30.376Z,12.78
2024-05-09T07:54:45.766Z,12.86
2024-05-09T07:56:48.205Z,13.02
2024-05-09T07:58:51.764Z,13.10
2024-05-09T08:00:54.898Z,13.04
2024-05-09T08:02:57.413Z,12.97
2024-05-09T08:04:59.750Z,13.19
2024-05-09T08:07:02.197Z,13.33
2024-05-09T08:09:08.132Z,13.21
2024-05-09T08:11:15.945Z,13.12
2024-05-09T08:13:18.412Z,13.20
2024-05-09T08:15:20.727Z,13.30
2024-05-09T08:17:23.147Z,13.27
2024-05-09T08:19:25.772Z,13.08
2024-05-09T08:21:29.936Z,13.20
2024-05-09T08:23:32.393Z,13.50
2024-05-09T08:25:34.668Z,13.57
2024-05-09T08:27:37.176Z,13.48
2024-05-09T08:29:39.563Z,13.53
2024-05-09T08:31:41.980Z,13.39
2024-05-09T08:33:47.536Z,13.51
2024-05-09T08:35:50.112Z,13.60
2024-05-09T08:37:53.722Z,13.64
2024-05-09T08:39:56.204Z,13.82
2024-05-09T08:41:58.443Z,14.13
2024-05-09T08:44:00.934Z,14.28
2024-05-09T08:46:03.261Z,14.44
2024-05-09T08:48:08.459Z,14.72
2024-05-09T08:50:16.709Z,14.93
2024-05-09T08:52:26.588Z,15.03
2024-05-09T08:54:30.635Z,14.85
2024-05-09T08:56:32.903Z,14.99
2024-05-09T08:58:35.229Z,15.16
2024-05-09T09:00:38.023Z,15.30
2024-05-09T09:02:40.439Z,15.20
2024-05-09T09:04:56.523Z,15.20
2024-05-09T09:07:00.291Z,15.24
2024-05-09T09:09:03.353Z,15.34
2024-05-09T09:11:05.918Z,15.53
2024-05-09T09:13:09.934Z,15.70
2024-05-09T09:15:12.381Z,15.68
2024-05-09T09:17:15.815Z,15.78
2024-05-09T09:19:18.935Z,15.95
2024-05-09T09:21:21.280Z,16.06
2024-05-09T09:23:23.565Z,16.10
2024-05-09T09:25:25.861Z,16.17
2024-05-09T09:27:28.138Z,16.36
2024-05-09T09:29:31.781Z,16.50
2024-05-09T09:31:34.247Z,16.58
2024-05-09T09:33:42.729Z,16.62
2024-05-09T09:35:45.174Z,16.74
2024-05-09T09:37:47.434Z,16.79
2024-05-09T09:39:49.766Z,16.76
2024-05-09T09:41:52.012Z,16.74
2024-05-09T09:43:54.287Z,17.04
2024-05-09T09:45:59.971Z,17.15
2024-05-09T09:48:02.462Z,17.40
2024-05-09T09:50:09.567Z,17.66
2024-05-09T09:52:14.618Z,17.70
2024-05-09T09:54:17.750Z,17.90
2024-05-09T09:56:20.435Z,18.01
2024-05-09T09:58:22.767Z,18.13
2024-05-09T10:00:30.652Z,18.49
2024-05-09T10:02:35.509Z,18.52
2024-05-09T10:04:37.909Z,18.82
2024-05-09T10:06:43.286Z,18.73
2024-05-09T10:08:46.997Z,18.71
2024-05-09T10:10:49.500Z,17.78
2024-05-09T10:13:20.183Z,18.37
2024-05-09T10:15:22.523Z,18.54
2024-05-09T10:17:24.977Z,18.62
2024-05-09T10:19:27.701Z,19.15
2024-05-09T10:21:30.127Z,19.10
2024-05-09T10:23:33.770Z,19.89
2024-05-09T10:25:36.568Z,20.17
2024-05-09T10:27:38.923Z,21.12
2024-05-09T10:29:53.048Z,21.57
2024-05-09T10:31:55.349Z,21.85
2024-05-09T10:33:57.742Z,21.36
2024-05-09T10:36:03.736Z,21.88
2024-05-09T10:38:11.296Z,21.98
2024-05-09T10:40:23.507Z,22.64
2024-05-09T10:42:31.452Z,22.99
2024-05-09T10:44:37.890Z,23.20
2024-05-09T10:46:40.129Z,23.59
2024-05-09T10:48:43.765Z,24.13
2024-05-09T10:50:47.179Z,24.03
2024-05-09T10:52:49.403Z,24.11
2024-05-09T10:54:52.477Z,23.94
2024-05-09T10:56:57.956Z,23.73
2024-05-09T10:59:00.305Z,24.81
2024-05-09T11:01:05.417Z,25.48
2024-05-09T11:03:11.721Z,26.01
2024-05-09T11:05:14.169Z,25.62
2024-05-09T11:07:17.802Z,24.62
2024-05-09T11:09:20.082Z,25.09
2024-05-09T11:11:22.438Z,25.59
2024-05-09T11:13:31.659Z,25.06
2024-05-09T11:15:41.308Z,26.40
2024-05-09T11:17:43.797Z,26.35
2024-05-09T11:19:46.948Z,27.20
2024-05-09T11:21:52.444Z,28.09
2024-05-09T11:23:54.860Z,28.28
2024-05-09T11:25:58.305Z,28.86
2024-05-09T11:28:01.474Z,28.51
2024-05-09T11:30:04.459Z,28.56
2024-05-09T11:32:09.043Z,28.87
2024-05-09T11:34:11.461Z,28.48
2024-05-09T11:36:14.105Z,28.98
2024-05-09T11:38:16.404Z,28.78
2024-05-09T11:40:25.256Z,28.11
2024-05-09T11:42:30.704Z,27.88
2024-05-09T11:44:32.993Z,28.00
2024-05-09T11:46:35.122Z,27.87
2024-05-09T11:48:38.110Z,28.75
2024-05-09T11:50:40.553Z,29.20
2024-05-09T11:52:42.909Z,30.78
2024-05-09T11:54:45.318Z,30.89
2024-05-09T11:56:47.584Z,30.31
2024-05-09T11:58:49.868Z,30.09
2024-05-09T12:00:52.312Z,29.66
2024-05-09T12:02:56.354Z,29.89
2024-05-09T12:04:58.759Z,28.63
2024-05-09T12:07:01.100Z,27.72
2024-05-09T12:09:03.405Z,28.36
2024-05-09T12:11:05.911Z,28.47
2024-05-09T12:13:08.562Z,26.93
2024-05-09T12:15:10.908Z,27.05
2024-05-09T12:17:13.600Z,27.23
2024-05-09T12:19:17.878Z,26.93
2024-05-09T12:21:20.175Z,28.01
2024-05-09T12:23:22.407Z,28.92
2024-05-09T12:25:24.720Z,26.86
2024-05-09T12:27:27.051Z,26.67
2024-05-09T12:29:29.385Z,25.62
2024-05-09T12:31:31.768Z,25.42
2024-05-09T12:33:34.158Z,24.95
2024-05-09T12:35:36.577Z,25.02
2024-05-09T12:37:38.819Z,26.00
2024-05-09T12:39:41.000Z,27.21
2024-05-09T12:41:43.311Z,27.32
2024-05-09T12:43:45.570Z,27.84
2024-05-09T12:45:49.022Z,28.43
2024-05-09T12:47:51.737Z,28.07
2024-05-09T12:49:54.095Z,27.55
2024-05-09T12:51:56.363Z,26.74
2024-05-09T12:53:58.674Z,26.58
2024-05-09T12:56:02.989Z,26.68
2024-05-09T12:58:06.864Z,26.82
2024-05-09T13:00:17.049Z,25.62
2024-05-09T13:02:23.300Z,27.04
2024-05-09T13:04:25.824Z,26.53
2024-05-09T13:06:28.332Z,27.59
2024-05-09T13:08:30.617Z,26.98
2024-05-09T13:10:33.638Z,28.52
2024-05-09T13:12:36.072Z,29.50
2024-05-09T13:14:38.303Z,29.12
2024-05-09T13:16:40.553Z,29.13
2024-05-09T13:18:44.421Z,28.77
2024-05-09T13:20:46.798Z,30.46
2024-05-09T13:22:49.133Z,30.17
2024-05-09T13:24:51.428Z,31.07
2024-05-09T13:26:53.797Z,31.13
2024-05-09T13:28:56.167Z,29.68
2024-05-09T13:30:59.035Z,30.79
2024-05-09T13:33:01.424Z,31.42
2024-05-09T13:35:03.756Z,31.36
2024-05-09T13:37:06.099Z,31.98
2024-05-09T13:39:08.439Z,32.26
2024-05-09T13:41:11.804Z,33.28
2024-05-09T13:43:14.366Z,33.26
2024-05-09T13:45:16.727Z,32.18
2024-05-09T13:47:19.168Z,30.47
2024-05-09T13:49:21.603Z,30.77
2024-05-09T13:51:23.897Z,30.84
2024-05-09T13:53:26.348Z,31.61
2024-05-09T13:55:28.617Z,32.08
2024-05-09T13:57:31.574Z,30.64
2024-05-09T13:59:33.910Z,29.74
2024-05-09T14:01:36.251Z,29.28
2024-05-09T14:03:38.741Z,30.32
2024-05-09T14:05:41.475Z,30.42
2024-05-09T14:07:44.512Z,31.31
2024-05-09T14:09:47.431Z,31.66
2024-05-09T14:11:49.694Z,30.62
2024-05-09T14:13:52.004Z,31.26
2024-05-09T14:15:54.441Z,32.83
2024-05-09T14:17:56.785Z,32.43
2024-05-09T14:19:59.066Z,32.70
2024-05-09T14:22:01.380Z,33.11
2024-05-09T14:24:03.928Z,33.18
2024-05-09T14:26:06.167Z,32.43
2024-05-09T14:28:08.617Z,32.69
2024-05-09T14:30:18.237Z,33.01
2024-05-09T14:32:28.219Z,32.08
2024-05-09T14:34:31.266Z,31.53
2024-05-09T14:36:33.992Z,30.29
2024-05-09T14:38:36.305Z,30.15
2024-05-09T14:40:42.751Z,29.97
2024-05-09T14:42:46.391Z,30.43
2024-05-09T14:44:48.951Z,30.72
2024-05-09T14:46:51.254Z,31.15
2024-05-09T14:48:53.754Z,31.23
2024-05-09T14:50:56.119Z,31.57
2024-05-09T14:52:58.378Z,30.60
2024-05-09T14:55:01.201Z,29.46
2024-05-09T14:57:03.998Z,29.80
2024-05-09T14:59:07.093Z,29.50
2024-05-09T15:01:09.460Z,28.47
2024-05-09T15:03:11.957Z,29.27
2024-05-09T15:05:14.516Z,29.56
2024-05-09T15:07:16.874Z,29.94
2024-05-09T15:09:19.193Z,28.66
2024-05-09T15:11:21.357Z,28.99
2024-05-09T15:13:25.007Z,29.80
2024-05-09T15:15:27.359Z,29.66
2024-05-09T15:17:30.937Z,29.88
2024-05-09T15:19:33.481Z,30.13
2024-05-09T15:21:35.915Z,29.56
2024-05-09T15:23:38.267Z,28.88
2024-05-09T15:25:40.797Z,28.08
2024-05-09T15:27:43.982Z,27.67
2024-05-09T15:29:46.254Z,28.12
2024-05-09T15:31:48.985Z,28.42
2024-05-09T15:33:51.389Z,28.78
2024-05-09T15:35:53.769Z,29.30
2024-05-09T15:37:56.112Z,28.18
2024-05-09T15:39:58.969Z,28.24
2024-05-09T15:42:02.564Z,28.54
2024-05-09T15:44:04.991Z,28.56
2024-05-09T15:46:07.301Z,28.54
2024-05-09T15:48:10.576Z,29.25
2024-05-09T15:50:20.428Z,28.85
2024-05-09T15:52:30.521Z,27.87
2024-05-09T15:54:32.791Z,27.81
2024-05-09T15:56:35.053Z,27.76
2024-05-09T15:58:37.196Z,28.03
2024-05-09T16:00:42.390Z,27.86
2024-05-09T16:02:46.595Z,28.01
2024-05-09T16:04:49.045Z,27.70
2024-05-09T16:06:51.454Z,27.58
2024-05-09T16:08:53.761Z,27.50
2024-05-09T16:10:56.230Z,27.18
2024-05-09T16:12:59.283Z,26.94
2024-05-09T16:15:01.583Z,27.23
2024-05-09T16:17:04.063Z,27.01
2024-05-09T16:19:06.559Z,26.83
2024-05-09T16:21:08.866Z,27.25
2024-05-09T16:23:11.079Z,28.43
2024-05-09T16:25:13.573Z,28.72
2024-05-09T16:27:15.906Z,29.05
2024-05-09T16:29:18.736Z,28.33
2024-05-09T16:31:21.043Z,27.69
2024-05-09T16:33:25.820Z,26.99
2024-05-09T16:35:28.338Z,26.42
2024-05-09T16:37:30.538Z,26.27
2024-05-09T16:39:32.850Z,26.50
2024-05-09T16:41:35.189Z,26.11
2024-05-09T16:43:37.356Z,25.90
2024-05-09T16:45:40.964Z,25.96
2024-05-09T16:47:43.329Z,25.79
2024-05-09T16:49:45.600Z,25.49
2024-05-09T16:51:47.907Z,25.57
2024-05-09T16:53:50.234Z,26.32
2024-05-09T16:55:52.767Z,27.32
2024-05-09T16:57:55.139Z,27.90
2024-05-09T16:59:57.606Z,26.41
2024-05-09T17:02:00.226Z,25.93
2024-05-09T17:04:02.918Z,25.74
2024-05-09T17:06:06.563Z,25.27
2024-05-09T17:08:08.963Z,24.72
2024-05-09T17:10:19.339Z,24.46
2024-05-09T17:12:28.641Z,23.60
2024-05-09T17:14:30.872Z,23.44
2024-05-09T17:16:33.294Z,23.20
2024-05-09T17:18:35.662Z,22.99
2024-05-09T17:20:38.225Z,22.87
2024-05-09T17:22:40.747Z,22.82
2024-05-09T17:24:43.069Z,22.90
2024-05-09T17:26:46.073Z,22.86
2024-05-09T17:28:48.334Z,22.79
2024-05-09T17:30:50.650Z,22.44
2024-05-09T17:32:53.087Z,22.50
2024-05-09T17:34:55.417Z,22.55
2024-05-09T17:36:57.758Z,22.28
2024-05-09T17:39:00.023Z,22.37
2024-05-09T17:41:02.456Z,21.90
2024-05-09T17:43:05.812Z,21.62
2024-05-09T17:45:08.670Z,21.48
2024-05-09T17:47:11.239Z,21.25
2024-05-09T17:49:13.750Z,21.19
2024-05-09T17:51:16.109Z,21.19
2024-05-09T17:53:19.038Z,20.75
2024-05-09T17:55:21.615Z,20.60
2024-05-09T17:57:23.848Z,20.35
2024-05-09T17:59:26.280Z,20.09
2024-05-09T18:01:28.683Z,20.00
2024-05-09T18:03:31.286Z,19.84
2024-05-09T18:05:36.043Z,19.49
2024-05-09T18:07:39.330Z,19.36
2024-05-09T18:09:41.720Z,19.08
2024-05-09T18:11:44.114Z,19.04
2024-05-09T18:13:47.424Z,18.85
2024-05-09T18:15:49.741Z,18.90
2024-05-09T18:17:52.390Z,18.93
2024-05-09T18:19:55.077Z,18.69
2024-05-09T18:21:57.474Z,18.66
2024-05-09T18:24:00.330Z,18.54
2024-05-09T18:26:03.338Z,18.53
2024-05-09T18:28:06.487Z,18.47
2024-05-09T18:30:23.775Z,18.25
2024-05-09T18:32:30.454Z,18.17
2024-05-09T18:34:32.868Z,18.12
2024-05-09T18:36:35.202Z,18.05
2024-05-09T18:38:37.582Z,18.06
2024-05-09T18:40:41.896Z,17.95
2024-05-09T18:42:46.008Z,17.98
2024-05-09T18:44:48.299Z,17.95
2024-05-09T18:46:51.316Z,17.81
2024-05-09T18:48:53.867Z,17.86
2024-05-09T18:50:56.791Z,17.70
2024-05-09T18:52:59.197Z,17.79
2024-05-09T18:55:01.710Z,17.67
2024-05-09T18:57:04.201Z,17.40
2024-05-09T18:59:06.596Z,17.52
2024-05-09T19:01:09.081Z,17.29
2024-05-09T19:03:13.513Z,17.04
2024-05-09T19:05:16.942Z,16.82
2024-05-09T19:07:19.713Z,16.46
2024-05-09T19:09:22.130Z,16.32
2024-05-09T19:11:24.384Z,16.06
2024-05-09T19:13:26.761Z,15.92
2024-05-09T19:15:29.161Z,15.76
2024-05-09T19:17:31.765Z,15.80
2024-05-09T19:19:34.399Z,15.55
2024-05-09T19:21:39.097Z,15.50
2024-05-09T19:23:47.267Z,15.49
2024-05-09T19:25:54.269Z,15.33
2024-05-09T19:27:56.666Z,15.26
2024-05-09T19:29:58.994Z,15.35
2024-05-09T19:32:01.263Z,15.27
2024-05-09T19:34:03.699Z,15.31
2024-05-09T19:36:06.970Z,15.25
2024-05-09T19:38:09.203Z,15.39
2024-05-09T19:40:18.253Z,15.32
2024-05-09T19:42:30.071Z,15.38
2024-05-09T19:44:32.388Z,15.28
2024-05-09T19:46:34.972Z,15.21
2024-05-09T19:48:37.507Z,15.08
2024-05-09T19:50:43.588Z,14.99
2024-05-09T19:52:47.127Z,14.87
2024-05-09T19:54:50.238Z,15.01
2024-05-09T19:56:52.492Z,14.84
2024-05-09T19:58:55.708Z,14.84
2024-05-09T20:00:58.160Z,14.88
2024-05-09T20:03:00.679Z,14.96
2024-05-09T20:05:03.920Z,14.91
2024-05-09T20:07:06.460Z,14.83
2024-05-09T20:09:08.755Z,14.85
2024-05-09T20:11:11.178Z,14.85
2024-05-09T20:13:14.080Z,14.73
2024-05-09T20:15:16.562Z,14.67
2024-05-09T20:17:18.822Z,14.65
2024-05-09T20:19:21.128Z,14.44
2024-05-09T20:21:24.883Z,14.35
2024-05-09T20:23:27.364Z,14.32
2024-05-09T20:25:29.640Z,14.24
2024-05-09T20:27:31.942Z,14.18
2024-05-09T20:29:34.212Z,14.17
2024-05-09T20:31:36.516Z,14.13
2024-05-09T20:33:39.042Z,14.10
2024-05-09T20:35:41.565Z,14.18
2024-05-09T20:37:43.802Z,14.28
2024-05-09T20:39:46.066Z,14.32
2024-05-09T20:41:48.368Z,14.23
2024-05-09T20:43:50.704Z,13.85
2024-05-09T20:45:53.099Z,13.82
2024-05-09T20:47:55.547Z,13.77
2024-05-09T20:49:58.033Z,13.79
2024-05-09T20:52:00.450Z,13.81
2024-05-09T20:54:02.812Z,13.82
2024-05-09T20:56:05.574Z,13.81
2024-05-09T20:58:08.581Z,13.72
2024-05-09T21:00:18.361Z,13.68
2024-05-09T21:02:21.821Z,13.64
2024-05-09T21:04:24.397Z,13.60
2024-05-09T21:06:26.871Z,13.55
2024-05-09T21:08:29.108Z,13.48
2024-05-09T21:10:33.091Z,13.44
2024-05-09T21:12:36.452Z,13.37
2024-05-09T21:14:38.779Z,13.29
2024-05-09T21:16:41.317Z,13.22
2024-05-09T21:18:43.673Z,13.32
2024-05-09T21:20:46.067Z,13.41
2024-05-09T21:22:48.383Z,13.28
2024-05-09T21:24:50.663Z,13.03
2024-05-09T21:26:53.179Z,13.08
2024-05-09T21:28:55.502Z,12.95
2024-05-09T21:30:58.015Z,12.94
2024-05-09T21:33:00.471Z,12.95
2024-05-09T21:35:02.769Z,12.94
2024-05-09T21:37:05.439Z,12.83
2024-05-09T21:39:09.765Z,12.86
2024-05-09T21:41:12.109Z,12.77
2024-05-09T21:43:14.654Z,12.80
2024-05-09T21:45:17.199Z,12.85
2024-05-09T21:47:19.463Z,12.69
2024-05-09T21:49:21.991Z,12.67
2024-05-09T21:51:24.700Z,12.73
2024-05-09T21:53:26.841Z,12.80
2024-05-09T21:55:30.219Z,12.73
2024-05-09T21:57:32.630Z,12.77
2024-05-09T21:59:34.994Z,12.79
2024-05-09T22:01:37.374Z,12.76
2024-05-09T22:03:40.021Z,12.81
2024-05-09T22:05:44.784Z,12.77
2024-05-09T22:07:47.487Z,12.70
2024-05-09T22:09:49.803Z,12.73
2024-05-09T22:11:53.908Z,12.66
2024-05-09T22:13:56.728Z,12.68
2024-05-09T22:15:59.133Z,12.59
2024-05-09T22:18:01.507Z,12.47
2024-05-09T22:20:11.711Z,12.41
2024-05-09T22:22:17.176Z,12.48
2024-05-09T22:24:19.580Z,12.56
2024-05-09T22:26:21.798Z,12.52
2024-05-09T22:28:24.119Z,12.50
2024-05-09T22:30:34.436Z,12.43
2024-05-09T22:32:40.510Z,12.47
2024-05-09T22:34:42.934Z,12.39
2024-05-09T22:36:45.261Z,12.40
2024-05-09T22:38:47.520Z,12.34
2024-05-09T22:40:50.259Z,12.26
2024-05-09T22:42:52.917Z,12.37
2024-05-09T22:44:55.341Z,12.31
2024-05-09T22:46:57.667Z,12.29
2024-05-09T22:49:00.099Z,12.25
2024-05-09T22:51:02.479Z,12.26
2024-05-09T22:53:05.765Z,12.26
2024-05-09T22:55:08.311Z,12.23
2024-05-09T22:57:10.616Z,12.26
2024-05-09T22:59:13.295Z,12.22
2024-05-09T23:01:15.600Z,12.21
2024-05-09T23:03:21.512Z,12.20
2024-05-09T23:05:24.225Z,12.15
2024-05-09T23:07:26.585Z,12.17
2024-05-09T23:09:28.936Z,12.10
2024-05-09T23:11:31.221Z,12.00
2024-05-09T23:13:34.803Z,11.97
2024-05-09T23:15:40.146Z,11.98
2024-05-09T23:17:42.551Z,12.04
2024-05-09T23:19:44.883Z,12.01
2024-05-09T23:21:47.194Z,11.99
2024-05-09T23:23:49.470Z,11.95
2024-05-09T23:25:51.733Z,11.87
2024-05-09T23:27:54.033Z,11.82
2024-05-09T23:29:56.270Z,11.80
2024-05-09T23:31:58.495Z,11.81
2024-05-09T23:34:00.845Z,11.82
2024-05-09T23:36:03.321Z,11.86
2024-05-09T23:38:05.682Z,11.79
2024-05-09T23:40:09.714Z,11.83
2024-05-09T23:42:12.112Z,11.63
2024-05-09T23:44:14.356Z,11.56
2024-05-09T23:46:16.684Z,11.55
2024-05-09T23:48:19.031Z,11.38
2024-05-09T23:50:30.194Z,11.51
2024-05-09T23:52:36.613Z,11.54
2024-05-09T23:54:38.791Z,11.45
2024-05-09T23:56:41.079Z,11.32
2024-05-09T23:58:43.462Z,11.20
